createdAt,value
2023-02-07T00:02:13.682Z,16.60
2023-02-07T00:07:17.974Z,16.77
2023-02-07T00:12:21.482Z,19.27
2023-02-07T00:17:24.946Z,23.10
2023-02-07T00:22:28.543Z,19.27
2023-02-07T00:27:32.256Z,20.90
2023-02-07T05:31:54.241Z,29.77
2023-02-07T05:36:57.107Z,33.40
2023-02-07T05:41:59.974Z,34.87
2023-02-07T05:47:02.847Z,27.50
2023-02-07T05:52:05.955Z,28.93
2023-02-07T05:57:08.942Z,34.40
2023-02-07T06:02:11.814Z,35.23
2023-02-07T06:07:14.855Z,33.47
2023-02-07T06:12:17.783Z,36.47
2023-02-07T06:17:20.749Z,30.47
2023-02-07T06:22:23.813Z,30.17
2023-02-07T06:27:26.647Z,33.73
2023-02-07T06:32:29.512Z,27.80
2023-02-07T06:37:32.428Z,26.87
2023-02-07T06:42:35.337Z,32.23
2023-02-07T06:47:38.257Z,26.27
2023-02-07T06:52:44.804Z,26.00
2023-02-07T06:57:47.736Z,27.47
2023-02-07T07:02:50.876Z,28.77
2023-02-07T07:07:53.814Z,28.77
2023-02-07T07:12:56.620Z,30.70
2023-02-07T07:17:59.490Z,32.80
2023-02-07T07:23:02.581Z,26.57
2023-02-07T07:28:05.612Z,26.10
2023-02-07T07:33:08.501Z,27.20
2023-02-07T07:38:11.837Z,24.30
2023-02-07T07:43:14.630Z,22.23
2023-02-07T07:48:17.563Z,23.00
2023-02-07T07:53:20.481Z,23.73
2023-02-07T07:58:24.933Z,18.67
2023-02-07T08:03:27.832Z,18.90
2023-02-07T08:08:30.729Z,21.33
2023-02-07T08:13:33.677Z,23.00
2023-02-07T08:18:36.674Z,25.40
2023-02-07T08:23:40.030Z,19.17
2023-02-07T08:28:42.911Z,23.67
2023-02-07T08:33:45.817Z,25.33
2023-02-07T08:38:48.666Z,26.30
2023-02-07T08:43:51.504Z,26.00
2023-02-07T08:48:54.377Z,20.37
2023-02-07T08:53:57.714Z,24.80
2023-02-07T08:59:00.662Z,25.33
2023-02-07T09:04:03.558Z,28.30
2023-02-07T09:09:07.087Z,24.03
2023-02-07T09:14:09.908Z,23.97
2023-02-07T09:19:12.755Z,23.93
2023-02-07T09:24:15.580Z,22.13
2023-02-07T09:29:18.588Z,24.17
2023-02-07T09:34:21.458Z,24.27
2023-02-07T09:39:24.305Z,27.07
2023-02-07T09:44:53.381Z,24.20
2023-02-07T09:50:04.184Z,25.17
2023-02-07T09:55:15.552Z,23.60
2023-02-07T10:00:34.058Z,22.13
2023-02-07T10:05:42.504Z,22.37
2023-02-07T10:10:46.677Z,18.67
2023-02-07T10:16:13.795Z,15.57
2023-02-07T10:21:31.621Z,13.97
2023-02-07T10:26:49.859Z,17.37
2023-02-07T10:31:54.130Z,18.30
2023-02-07T10:36:58.473Z,15.40
2023-02-07T10:42:01.504Z,15.73
2023-02-07T10:47:07.210Z,16.23
2023-02-07T10:52:37.608Z,16.10
2023-02-07T10:57:42.122Z,17.27
2023-02-07T11:02:51.965Z,14.77
2023-02-07T11:08:24.676Z,15.70
2023-02-07T11:13:29.838Z,10.97
2023-02-07T11:18:39.381Z,15.10
2023-02-07T11:23:44.888Z,16.17
2023-02-07T11:28:54.969Z,12.27
2023-02-07T11:34:21.949Z,12.07
2023-02-07T11:39:24.837Z,10.60
2023-02-07T11:44:30.748Z,7.40
2023-02-07T11:49:42.778Z,8.47
2023-02-07T11:54:55.369Z,8.57
2023-02-07T12:00:03.204Z,8.73
2023-02-07T12:05:18.145Z,8.80
2023-02-07T12:10:23.808Z,8.37
2023-02-07T12:15:52.711Z,7.23
2023-02-07T12:21:14.395Z,7.30
2023-02-07T12:26:23.917Z,6.67
2023-02-07T12:31:47.640Z,7.37
2023-02-07T12:37:12.515Z,6.93
2023-02-07T12:42:25.266Z,6.53
2023-02-07T12:47:42.524Z,6.40
2023-02-07T12:53:05.495Z,5.83
2023-02-07T12:58:23.388Z,5.83
2023-02-07T13:03:58.199Z,7.20
2023-02-07T13:09:36.543Z,5.97
2023-02-07T13:14:48.165Z,6.40
2023-02-07T13:20:09.160Z,6.57
2023-02-07T13:25:40.225Z,5.63
2023-02-07T13:30:43.401Z,6.37
2023-02-07T13:35:47.075Z,7.23
2023-02-07T13:40:54.631Z,6.50
2023-02-07T13:46:09.072Z,5.33
2023-02-07T13:51:27.133Z,6.17
2023-02-07T13:56:54.172Z,7.60
2023-02-07T14:02:00.602Z,7.60
2023-02-07T14:07:11.777Z,6.73
2023-02-07T14:12:29.208Z,8.60
2023-02-07T14:17:32.031Z,4.83
2023-02-07T14:22:43.733Z,8.33
2023-02-07T14:27:52.760Z,5.77
2023-02-07T14:33:19.806Z,5.93
2023-02-07T14:39:01.992Z,5.33
2023-02-07T14:44:09.992Z,6.27
2023-02-07T14:49:25.900Z,6.83
2023-02-07T14:54:49.999Z,6.80
2023-02-07T15:00:19.401Z,7.40
2023-02-07T15:05:32.916Z,4.23
2023-02-07T15:10:44.885Z,5.63
2023-02-07T15:15:55.450Z,5.03
2023-02-07T15:20:59.329Z,6.70
2023-02-07T15:26:06.827Z,8.30
2023-02-07T15:31:15.090Z,6.90
2023-02-07T15:36:30.953Z,5.40
2023-02-07T15:41:34.276Z,6.77
2023-02-07T15:46:55.328Z,7.57
2023-02-07T15:52:14.056Z,4.67
2023-02-07T15:57:32.120Z,5.83
2023-02-07T16:02:37.282Z,7.37
2023-02-07T16:07:40.420Z,4.70
2023-02-07T16:12:53.165Z,7.33
2023-02-07T16:23:36.945Z,7.47
2023-02-07T16:28:39.874Z,8.37
2023-02-07T16:33:42.904Z,9.20
2023-02-07T16:38:46.352Z,6.90
2023-02-07T16:43:49.283Z,9.53
2023-02-07T16:48:52.246Z,7.30
2023-02-07T16:53:55.173Z,6.97
2023-02-07T16:58:58.211Z,7.20
2023-02-07T17:04:01.111Z,7.37
2023-02-07T17:09:04.533Z,9.47
2023-02-07T17:14:07.677Z,8.80
2023-02-07T17:19:18.277Z,10.20
2023-02-07T17:24:21.269Z,8.30
2023-02-07T17:29:24.732Z,7.87
2023-02-07T17:34:27.695Z,6.87
2023-02-07T17:39:30.615Z,6.83
2023-02-07T17:44:35.554Z,9.27
2023-02-07T17:49:38.415Z,7.97
2023-02-07T17:54:43.067Z,10.83
2023-02-07T17:59:45.910Z,10.20
2023-02-07T18:04:51.410Z,11.60
2023-02-07T18:09:54.704Z,9.13
2023-02-07T18:14:57.757Z,6.13
2023-02-07T18:20:00.732Z,9.00
2023-02-07T18:25:03.788Z,7.63
2023-02-07T18:30:08.497Z,10.47
2023-02-07T18:35:12.128Z,8.30
2023-02-07T18:40:16.042Z,8.67
2023-02-07T18:45:19.314Z,7.13
2023-02-07T18:50:23.378Z,10.27
2023-02-07T18:55:26.177Z,9.23
2023-02-07T19:00:29.022Z,8.23
2023-02-07T19:05:31.901Z,7.13
2023-02-07T19:10:34.723Z,6.33
2023-02-07T19:15:37.809Z,9.20
2023-02-07T19:20:41.120Z,8.37
2023-02-07T19:25:48.357Z,8.37
2023-02-07T19:30:51.531Z,9.00
2023-02-07T19:35:54.766Z,7.50
2023-02-07T19:40:58.353Z,10.70
2023-02-07T19:46:01.280Z,8.30
2023-02-07T19:51:09.160Z,8.27
2023-02-07T19:56:13.144Z,8.47
2023-02-07T20:01:16.608Z,8.77
2023-02-07T20:06:25.290Z,7.63
2023-02-07T20:11:28.239Z,10.27
2023-02-07T20:16:33.974Z,6.93
2023-02-07T20:21:37.563Z,8.53
2023-02-07T20:26:43.048Z,7.97
2023-02-07T20:31:47.228Z,8.47
2023-02-07T20:36:50.120Z,7.23
2023-02-07T20:41:53.232Z,6.20
2023-02-07T20:46:57.265Z,8.47
2023-02-07T20:52:00.818Z,9.37
2023-02-07T20:57:03.973Z,8.23
2023-02-07T21:02:07.069Z,8.60
2023-02-07T21:07:11.083Z,9.83
2023-02-07T21:12:14.146Z,9.23
2023-02-07T21:17:16.996Z,10.30
2023-02-07T21:22:23.014Z,10.27
2023-02-07T21:27:26.325Z,8.57
2023-02-07T21:32:29.341Z,11.43
2023-02-07T21:37:32.252Z,9.43
2023-02-07T21:42:35.299Z,8.43
2023-02-07T21:47:38.431Z,10.23
2023-02-07T21:52:41.333Z,6.73
2023-02-07T21:57:44.170Z,8.87
2023-02-07T22:02:46.989Z,12.23
2023-02-07T22:07:49.878Z,8.07
2023-02-07T22:12:52.690Z,11.60
2023-02-07T22:17:55.519Z,11.60
2023-02-07T22:22:58.408Z,12.23
2023-02-07T22:28:01.333Z,11.97
2023-02-07T22:33:05.474Z,10.00
2023-02-07T22:38:09.925Z,11.67
2023-02-07T22:43:15.219Z,11.40
2023-02-07T22:48:18.029Z,10.33
2023-02-07T22:53:20.930Z,11.90
2023-02-07T22:58:23.804Z,9.33
2023-02-07T23:03:26.677Z,9.03
2023-02-07T23:08:29.549Z,7.87
2023-02-07T23:13:32.373Z,9.30
2023-02-07T23:18:35.214Z,8.17
2023-02-07T23:23:38.587Z,8.17
2023-02-07T23:28:41.489Z,10.67
2023-02-07T23:33:44.347Z,11.33
2023-02-07T23:38:47.994Z,8.77
2023-02-07T23:43:50.918Z,8.67
2023-02-07T23:48:54.324Z,10.80
2023-02-07T23:53:57.406Z,12.67
2023-02-07T23:59:00.256Z,7.87
